createdAt,value
2023-03-11T00:02:22.309Z,98827.78
2023-03-11T00:04:50.793Z,98808.41
2023-03-11T00:07:19.397Z,98819.50
2023-03-11T00:09:48.101Z,98806.63
2023-03-11T00:12:16.465Z,98816.09
2023-03-11T00:14:44.773Z,98803.91
2023-03-11T00:17:14.537Z,98803.91
2023-03-11T00:19:42.879Z,98805.25
2023-03-11T00:22:11.197Z,98807.88
2023-03-11T00:24:39.721Z,98807.13
2023-03-11T00:27:08.168Z,98801.97
2023-03-11T00:29:36.452Z,98797.84
2023-03-11T00:32:04.924Z,98791.63
2023-03-11T00:34:34.711Z,98786.16
2023-03-11T00:37:03.147Z,98793.41
2023-03-11T00:39:31.460Z,98782.97
2023-03-11T00:41:59.977Z,98780.19
2023-03-11T00:44:28.275Z,98774.00
2023-03-11T00:46:56.607Z,98771.31
2023-03-11T00:49:24.963Z,98769.88
2023-03-11T00:51:54.920Z,98764.78
2023-03-11T00:54:23.194Z,98754.53
2023-03-11T00:56:51.525Z,98755.81
2023-03-11T00:59:19.887Z,98755.06
2023-03-11T01:01:48.342Z,98751.59
2023-03-11T01:04:16.685Z,98749.91
2023-03-11T01:06:45.935Z,98746.06
2023-03-11T01:09:15.810Z,98745.25
2023-03-11T01:11:44.190Z,98737.22
2023-03-11T01:14:12.653Z,98735.59
2023-03-11T01:16:41.014Z,98743.59
2023-03-11T01:19:09.353Z,98742.03
2023-03-11T01:21:37.698Z,98726.63
2023-03-11T01:24:06.522Z,98731.28
2023-03-11T01:26:36.348Z,98725.69
2023-03-11T01:29:04.876Z,98716.63
2023-03-11T01:31:33.223Z,98717.63
2023-03-11T01:34:01.572Z,98712.84
2023-03-11T01:36:29.866Z,98718.41
2023-03-11T01:38:58.229Z,98711.16
2023-03-11T01:41:26.549Z,98702.59
2023-03-11T01:43:56.644Z,98703.16
2023-03-11T01:46:26.776Z,98707.16
2023-03-11T01:48:56.597Z,98711.56
2023-03-11T01:51:29.477Z,98706.34
2023-03-11T01:54:01.292Z,98705.84
2023-03-11T01:56:29.944Z,98713.13
2023-03-11T01:59:00.262Z,98701.13
2023-03-11T02:01:28.772Z,98697.56
2023-03-11T02:03:58.068Z,98693.75
2023-03-11T02:06:33.440Z,98697.22
2023-03-11T02:09:07.214Z,98691.69
2023-03-11T02:11:35.708Z,98696.72
2023-03-11T02:14:10.160Z,98691.28
2023-03-11T02:16:38.577Z,98688.25
2023-03-11T02:19:18.485Z,98678.28
2023-03-11T02:21:46.818Z,98679.38
2023-03-11T02:24:21.473Z,98674.66
2023-03-11T02:26:57.448Z,98680.94
2023-03-11T02:29:28.183Z,98679.38
2023-03-11T02:31:58.223Z,98674.41
2023-03-11T02:34:28.607Z,98686.28
2023-03-11T02:36:57.310Z,98679.00
2023-03-11T02:39:32.651Z,98679.06
2023-03-11T02:42:06.851Z,98668.06
2023-03-11T02:44:35.818Z,98666.09
2023-03-11T02:47:04.446Z,98659.22
2023-03-11T02:49:33.222Z,98673.91
2023-03-11T02:52:01.575Z,98654.13
2023-03-11T02:54:29.922Z,98647.34
2023-03-11T02:56:58.230Z,98638.88
2023-03-11T02:59:27.993Z,98632.84
2023-03-11T03:03:02.000Z,98629.03
2023-03-11T03:05:30.447Z,98623.66
2023-03-11T03:07:58.788Z,98628.13
2023-03-11T03:10:27.183Z,98632.72
2023-03-11T03:12:55.516Z,98639.50
2023-03-11T03:15:25.221Z,98631.75
2023-03-11T03:17:53.764Z,98633.25
2023-03-11T03:20:22.873Z,98614.41
2023-03-11T03:22:52.126Z,98627.97
2023-03-11T03:25:20.468Z,98631.34
2023-03-11T03:27:48.816Z,98611.03
2023-03-11T03:30:17.224Z,98610.59
2023-03-11T03:32:47.050Z,98613.22
2023-03-11T03:35:15.367Z,98606.53
2023-03-11T03:37:43.663Z,98602.44
2023-03-11T03:40:13.054Z,98596.53
2023-03-11T03:42:41.468Z,98592.28
2023-03-11T03:45:11.325Z,98586.22
2023-03-11T03:47:39.756Z,98599.81
2023-03-11T03:50:11.784Z,98576.91
2023-03-11T03:52:41.057Z,98566.59
2023-03-11T03:55:10.029Z,98557.34
2023-03-11T03:57:38.402Z,98563.91
2023-03-11T04:00:10.279Z,98568.16
2023-03-11T04:02:38.687Z,98576.25
2023-03-11T04:05:08.310Z,98583.88
2023-03-11T04:07:38.136Z,98577.31
2023-03-11T04:10:07.621Z,98575.84
2023-03-11T04:12:36.130Z,98573.50
2023-03-11T04:15:04.672Z,98580.69
2023-03-11T04:17:32.994Z,98571.88
2023-03-11T04:20:01.367Z,98577.31
2023-03-11T04:22:29.709Z,98561.22
2023-03-11T04:24:59.445Z,98555.00
2023-03-11T04:27:28.061Z,98546.19
2023-03-11T04:29:56.411Z,98538.50
2023-03-11T04:32:24.748Z,98534.91
2023-03-11T04:34:53.103Z,98522.72
2023-03-11T04:37:21.425Z,98530.06
2023-03-11T04:39:53.430Z,98523.28
2023-03-11T04:42:23.162Z,98529.19
2023-03-11T04:44:51.474Z,98513.31
2023-03-11T04:47:21.826Z,98510.75
2023-03-11T04:49:50.195Z,98502.84
2023-03-11T04:52:18.735Z,98510.75
2023-03-11T04:54:47.014Z,98528.06
2023-03-11T04:57:15.429Z,98533.91
2023-03-11T04:59:45.186Z,98530.78
2023-03-11T05:02:13.567Z,98523.03
2023-03-11T05:04:41.902Z,98525.06
2023-03-11T05:07:10.246Z,98516.25
2023-03-11T05:09:39.067Z,98511.59
2023-03-11T05:12:08.335Z,98512.19
2023-03-11T05:14:36.686Z,98507.41
2023-03-11T05:17:06.582Z,98502.88
2023-03-11T05:19:35.902Z,98497.84
2023-03-11T05:22:05.793Z,98493.72
2023-03-11T05:24:34.272Z,98484.38
2023-03-11T05:27:02.931Z,98483.56
2023-03-11T05:29:31.462Z,98474.94
2023-03-11T05:31:59.939Z,98487.63
2023-03-11T05:34:32.729Z,98493.25
2023-03-11T05:37:03.190Z,98485.72
2023-03-11T05:39:32.012Z,98473.97
2023-03-11T05:42:13.040Z,98483.03
2023-03-11T05:44:41.654Z,98490.59
2023-03-11T05:47:09.996Z,98497.34
2023-03-11T05:49:39.809Z,98494.88
2023-03-11T05:52:08.285Z,98484.56
2023-03-11T05:54:36.649Z,98489.88
2023-03-11T05:57:05.186Z,98493.25
2023-03-11T05:59:35.462Z,98490.84
2023-03-11T06:02:03.803Z,98507.94
2023-03-11T06:04:32.313Z,98490.38
2023-03-11T06:07:02.431Z,98491.75
2023-03-11T06:09:30.736Z,98499.59
2023-03-11T06:11:59.136Z,98497.00
2023-03-11T06:14:31.799Z,98480.22
2023-03-11T06:17:00.220Z,98493.84
2023-03-11T06:19:28.573Z,98490.00
2023-03-11T06:21:56.956Z,98489.69
2023-03-11T06:24:26.755Z,98487.50
2023-03-11T06:26:55.593Z,98494.63
2023-03-11T06:29:26.734Z,98478.97
2023-03-11T06:32:13.029Z,98483.63
2023-03-11T06:34:41.395Z,98490.31
2023-03-11T06:37:09.786Z,98471.00
2023-03-11T06:39:39.498Z,98473.56
2023-03-11T06:42:11.246Z,98468.22
2023-03-11T06:44:39.896Z,98459.41
2023-03-11T06:47:08.339Z,98459.41
2023-03-11T06:49:41.056Z,98452.69
2023-03-11T06:52:09.974Z,98436.59
2023-03-11T06:54:41.957Z,98440.97
2023-03-11T06:57:10.854Z,98440.66
2023-03-11T06:59:42.012Z,98437.03
2023-03-11T07:02:17.839Z,98431.97
2023-03-11T07:04:46.253Z,98438.44
2023-03-11T07:07:16.232Z,98445.31
2023-03-11T07:09:56.191Z,98440.28
2023-03-11T07:12:25.572Z,98432.41
2023-03-11T07:14:56.549Z,98435.53
2023-03-11T07:17:25.357Z,98429.69
2023-03-11T07:19:56.211Z,98440.53
2023-03-11T07:22:24.516Z,98431.31
2023-03-11T07:24:54.290Z,98427.66
2023-03-11T07:27:23.242Z,98427.00
2023-03-11T07:29:51.577Z,98417.59
2023-03-11T07:32:20.173Z,98405.97
2023-03-11T07:34:48.587Z,98400.09
2023-03-11T07:37:16.929Z,98395.66
2023-03-11T07:39:45.369Z,98390.22
2023-03-11T07:42:15.158Z,98394.06
2023-03-11T07:44:43.754Z,98380.66
2023-03-11T07:47:12.284Z,98377.25
2023-03-11T07:49:40.595Z,98380.31
2023-03-11T07:52:09.023Z,98377.94
2023-03-11T07:54:37.379Z,98383.56
2023-03-11T07:57:05.971Z,98384.66
2023-03-11T07:59:35.709Z,98378.69
2023-03-11T08:02:04.839Z,98375.13
2023-03-11T08:04:33.266Z,98365.84
2023-03-11T08:07:01.625Z,98369.44
2023-03-11T08:09:29.930Z,98373.72
2023-03-11T08:11:58.360Z,98371.56
2023-03-11T08:14:26.774Z,98362.59
2023-03-11T08:16:56.445Z,98354.72
2023-03-11T08:19:24.992Z,98346.84
2023-03-11T08:21:53.347Z,98357.38
2023-03-11T08:24:21.661Z,98344.38
2023-03-11T08:26:50.096Z,98349.28
2023-03-11T08:29:36.125Z,98353.53
2023-03-11T08:32:06.572Z,98335.69
2023-03-11T08:34:35.850Z,98338.56
2023-03-11T08:37:04.785Z,98332.38
2023-03-11T08:39:33.340Z,98326.56
2023-03-11T08:42:06.162Z,98333.06
2023-03-11T08:44:37.545Z,98337.56
2023-03-11T08:47:07.641Z,98340.53
2023-03-11T08:49:36.465Z,98346.34
2023-03-11T08:52:05.572Z,98335.25
2023-03-11T08:54:34.181Z,98332.06
2023-03-11T08:57:04.780Z,98341.50
2023-03-11T08:59:33.169Z,98346.44
2023-03-11T09:02:01.510Z,98327.78
2023-03-11T09:04:31.227Z,98332.94
2023-03-11T09:06:59.979Z,98318.09
2023-03-11T09:09:28.405Z,98323.19
2023-03-11T09:11:56.751Z,98319.38
2023-03-11T09:14:25.050Z,98312.31
2023-03-11T09:16:53.355Z,98304.47
2023-03-11T09:19:21.719Z,98314.19
2023-03-11T09:21:51.522Z,98311.13
2023-03-11T09:24:19.905Z,98317.44
2023-03-11T09:26:48.262Z,98316.13
2023-03-11T09:29:16.602Z,98313.81
2023-03-11T09:31:44.936Z,98333.78
2023-03-11T09:34:16.292Z,98361.22
2023-03-11T09:36:45.546Z,98352.94
2023-03-11T09:39:15.809Z,98358.44
2023-03-11T09:41:58.034Z,98351.25
2023-03-11T09:44:47.957Z,98370.91
2023-03-11T09:47:34.635Z,98371.44
2023-03-11T09:50:15.374Z,98362.69
2023-03-11T09:52:52.653Z,98350.38
2023-03-11T09:55:37.870Z,98353.03
2023-03-11T09:58:16.059Z,98341.19
2023-03-11T10:00:48.338Z,98328.47
2023-03-11T10:03:28.607Z,98306.94
2023-03-11T10:06:26.977Z,98293.50
2023-03-11T10:09:04.390Z,98288.28
2023-03-11T10:12:01.759Z,98270.03
2023-03-11T10:14:51.665Z,98272.66
2023-03-11T10:17:38.808Z,98285.97
2023-03-11T10:20:13.191Z,98314.47
2023-03-11T10:22:48.804Z,98317.19
2023-03-11T10:25:19.989Z,98324.28
2023-03-11T10:27:53.363Z,98323.94
2023-03-11T10:30:27.437Z,98315.53
2023-03-11T10:32:59.842Z,98303.59
2023-03-11T10:35:35.493Z,98294.78
2023-03-11T10:38:13.740Z,98284.44
2023-03-11T10:40:44.186Z,98278.22
2023-03-11T10:43:18.425Z,98285.59
2023-03-11T10:45:48.719Z,98278.72
2023-03-11T10:48:18.462Z,98289.47
2023-03-11T10:50:52.256Z,98287.94
2023-03-11T10:53:21.616Z,98278.31
2023-03-11T10:55:51.500Z,98279.81
2023-03-11T10:58:23.776Z,98267.50
2023-03-11T11:01:16.064Z,98263.28
2023-03-11T11:03:45.745Z,98253.28
2023-03-11T11:06:25.497Z,98250.97
2023-03-11T11:09:07.847Z,98237.09
2023-03-11T11:11:36.717Z,98233.59
2023-03-11T11:14:07.546Z,98244.78
2023-03-11T11:16:36.435Z,98242.41
2023-03-11T11:19:09.546Z,98245.41
2023-03-11T11:21:39.607Z,98239.16
2023-03-11T11:24:16.859Z,98228.66
2023-03-11T11:27:04.483Z,98221.00
2023-03-11T11:29:34.907Z,98231.09
2023-03-11T11:32:19.742Z,98232.44
2023-03-11T11:34:58.748Z,98241.31
2023-03-11T11:37:32.173Z,98239.66
2023-03-11T11:40:11.226Z,98247.16
2023-03-11T11:42:43.628Z,98238.28
2023-03-11T11:45:17.918Z,98240.38
2023-03-11T11:47:50.335Z,98237.59
2023-03-11T11:50:26.191Z,98234.44
2023-03-11T11:52:59.766Z,98237.19
2023-03-11T11:55:31.921Z,98234.94
2023-03-11T11:58:00.489Z,98231.13
2023-03-11T12:00:42.792Z,98228.88
2023-03-11T12:03:27.222Z,98223.59
2023-03-11T12:05:59.268Z,98233.22
2023-03-11T12:08:37.928Z,98237.97
2023-03-11T12:11:09.062Z,98247.16
2023-03-11T12:14:03.324Z,98252.19
2023-03-11T12:16:42.872Z,98252.50
2023-03-11T12:19:35.841Z,98266.31
2023-03-11T12:22:41.088Z,98255.53
2023-03-11T12:25:24.918Z,98252.47
2023-03-11T12:27:58.472Z,98248.47
2023-03-11T12:30:30.540Z,98253.06
2023-03-11T12:33:05.273Z,98252.19
2023-03-11T12:35:35.731Z,98252.19
2023-03-11T12:38:17.467Z,98267.34
2023-03-11T12:41:08.239Z,98247.97
2023-03-11T12:44:05.476Z,98245.00
2023-03-11T12:47:05.035Z,98247.97
2023-03-11T12:49:35.949Z,98244.56
2023-03-11T12:52:19.588Z,98239.56
2023-03-11T12:54:49.375Z,98235.41
2023-03-11T12:57:42.263Z,98236.59
2023-03-11T13:00:31.185Z,98237.69
2023-03-11T13:03:37.890Z,98243.41
2023-03-11T13:06:22.591Z,98244.84
2023-03-11T13:08:55.961Z,98241.00
2023-03-11T13:11:55.439Z,98228.91
2023-03-11T13:14:30.006Z,98234.75
2023-03-11T13:17:06.909Z,98235.16
2023-03-11T13:19:53.304Z,98230.53
2023-03-11T13:23:15.152Z,98225.28
2023-03-11T13:26:03.946Z,98233.81
2023-03-11T13:29:11.399Z,98230.94
2023-03-11T13:31:51.140Z,98231.09
2023-03-11T13:34:31.133Z,98231.91
2023-03-11T13:37:14.943Z,98240.03
2023-03-11T13:40:14.233Z,98235.97
2023-03-11T13:42:46.480Z,98223.72
2023-03-11T13:45:28.196Z,98228.00
2023-03-11T13:48:00.956Z,98223.53
2023-03-11T13:50:33.890Z,98223.06
2023-03-11T13:53:04.998Z,98221.06
2023-03-11T13:55:40.379Z,98215.34
2023-03-11T13:58:17.212Z,98215.31
2023-03-11T14:00:51.649Z,98219.13
2023-03-11T14:03:23.077Z,98223.41
2023-03-11T14:05:57.815Z,98217.34
2023-03-11T14:08:28.538Z,98226.97
2023-03-11T14:10:59.775Z,98218.75
2023-03-11T14:13:29.653Z,98221.81
2023-03-11T14:16:06.157Z,98221.94
2023-03-11T14:18:39.863Z,98225.84
2023-03-11T14:21:14.682Z,98231.41
2023-03-11T14:23:45.938Z,98228.44
2023-03-11T14:26:19.057Z,98229.19
2023-03-11T14:28:51.050Z,98232.19
2023-03-11T14:31:32.638Z,98231.22
2023-03-11T14:34:04.674Z,98234.19
2023-03-11T14:36:42.416Z,98242.44
2023-03-11T14:39:29.081Z,98242.59
2023-03-11T14:42:04.350Z,98245.78
2023-03-11T14:44:36.209Z,98252.41
2023-03-11T14:47:11.062Z,98245.59
2023-03-11T14:49:41.869Z,98254.81
2023-03-11T14:52:18.074Z,98256.31
2023-03-11T14:54:47.361Z,98252.13
2023-03-11T14:57:24.521Z,98251.69
2023-03-11T14:59:54.588Z,98255.72
2023-03-11T15:02:42.006Z,98266.56
2023-03-11T15:05:21.088Z,98279.13
2023-03-11T15:07:51.278Z,98278.88
2023-03-11T15:10:19.756Z,98273.72
2023-03-11T15:12:50.070Z,98272.06
2023-03-11T15:15:27.045Z,98281.06
2023-03-11T15:17:56.748Z,98287.84
2023-03-11T15:20:27.906Z,98297.00
2023-03-11T15:23:03.081Z,98305.50
2023-03-11T15:25:34.540Z,98306.09
2023-03-11T15:28:24.351Z,98304.94
2023-03-11T15:30:52.883Z,98312.81
2023-03-11T15:33:33.889Z,98315.09
2023-03-11T15:36:02.366Z,98319.75
2023-03-11T15:38:30.860Z,98325.78
2023-03-11T15:41:01.116Z,98328.06
2023-03-11T15:43:32.552Z,98323.28
2023-03-11T15:46:03.612Z,98329.03
2023-03-11T15:48:32.053Z,98330.09
2023-03-11T15:51:01.613Z,98335.38
2023-03-11T15:53:31.658Z,98338.31
2023-03-11T15:56:07.872Z,98342.53
2023-03-11T15:58:38.534Z,98347.41
2023-03-11T16:01:07.609Z,98348.13
2023-03-11T16:03:35.981Z,98345.09
2023-03-11T16:06:04.479Z,98344.03
2023-03-11T16:08:33.018Z,98362.16
2023-03-11T16:11:01.335Z,98362.72
2023-03-11T16:13:29.752Z,98362.41
2023-03-11T16:15:59.555Z,98363.56
2023-03-11T16:18:28.093Z,98374.41
2023-03-11T16:20:56.913Z,98372.00
2023-03-11T16:23:27.600Z,98364.53
2023-03-11T16:25:59.909Z,98381.00
2023-03-11T16:28:28.729Z,98384.13
2023-03-11T16:30:58.554Z,98396.88
2023-03-11T16:33:26.992Z,98397.75
2023-03-11T16:35:55.362Z,98394.84
2023-03-11T16:38:24.513Z,98395.41
2023-03-11T16:40:58.081Z,98393.22
2023-03-11T16:43:26.788Z,98397.22
2023-03-11T16:45:55.415Z,98398.06
2023-03-11T16:48:26.028Z,98408.38
2023-03-11T16:50:55.268Z,98411.53
2023-03-11T16:53:25.219Z,98401.22
2023-03-11T16:55:54.216Z,98411.53
2023-03-11T16:58:22.594Z,98416.13
2023-03-11T17:00:52.168Z,98416.91
2023-03-11T17:03:22.042Z,98415.31
2023-03-11T17:05:51.905Z,98413.97
2023-03-11T17:08:20.591Z,98418.25
2023-03-11T17:10:51.583Z,98402.22
2023-03-11T17:13:19.941Z,98409.38
2023-03-11T17:15:58.901Z,98406.16
2023-03-11T17:18:27.728Z,98415.41
2023-03-11T17:20:57.501Z,98416.09
2023-03-11T17:23:25.981Z,98417.38
2023-03-11T17:25:54.346Z,98416.94
2023-03-11T17:28:22.725Z,98434.09
2023-03-11T17:30:51.244Z,98433.59
2023-03-11T17:33:19.649Z,98443.31
2023-03-11T17:35:48.461Z,98437.84
2023-03-11T17:38:18.465Z,98439.81
2023-03-11T17:40:46.900Z,98433.94
2023-03-11T17:43:15.474Z,98432.69
2023-03-11T17:45:43.842Z,98443.22
2023-03-11T17:48:12.122Z,98441.59
2023-03-11T17:50:40.863Z,98454.84
2023-03-11T17:53:09.600Z,98461.69
2023-03-11T17:55:41.779Z,98461.69
2023-03-11T17:58:10.198Z,98456.97
2023-03-11T18:00:39.089Z,98461.94
2023-03-11T18:03:07.578Z,98472.63
2023-03-11T18:05:37.832Z,98466.41
2023-03-11T18:08:06.423Z,98465.53
2023-03-11T18:10:34.904Z,98470.03
2023-03-11T18:13:04.761Z,98468.44
2023-03-11T18:15:33.037Z,98482.31
2023-03-11T18:18:01.321Z,98485.94
2023-03-11T18:20:29.656Z,98498.78
2023-03-11T18:22:58.209Z,98506.16
2023-03-11T18:25:26.581Z,98496.03
2023-03-11T18:27:55.000Z,98504.22
2023-03-11T18:30:25.588Z,98501.63
2023-03-11T18:32:54.667Z,98515.53
2023-03-11T18:35:23.346Z,98518.38
2023-03-11T18:37:52.050Z,98519.16
2023-03-11T18:40:21.305Z,98518.09
2023-03-11T18:42:50.038Z,98531.25
2023-03-11T18:45:18.655Z,98530.59
2023-03-11T18:47:48.473Z,98529.47
2023-03-11T18:50:17.149Z,98540.38
2023-03-11T18:52:45.628Z,98543.53
2023-03-11T18:55:15.216Z,98541.00
2023-03-11T18:57:43.657Z,98548.34
2023-03-11T19:00:13.514Z,98550.28
2023-03-11T19:02:42.070Z,98551.75
2023-03-11T19:05:11.933Z,98573.84
2023-03-11T19:07:40.348Z,98570.75
2023-03-11T19:10:09.524Z,98585.66
2023-03-11T19:12:38.287Z,98592.09
2023-03-11T19:15:08.030Z,98584.41
2023-03-11T19:17:36.386Z,98581.78
2023-03-11T19:20:08.164Z,98613.16
2023-03-11T19:22:38.593Z,98612.28
2023-03-11T19:25:07.632Z,98627.31
2023-03-11T19:27:39.118Z,98618.28
2023-03-11T19:30:09.914Z,98620.31
2023-03-11T19:32:38.422Z,98625.72
2023-03-11T19:35:11.015Z,98629.63
2023-03-11T19:37:40.914Z,98647.38
2023-03-11T19:40:11.544Z,98638.44
2023-03-11T19:42:39.994Z,98646.47
2023-03-11T19:45:09.423Z,98628.75
2023-03-11T19:47:38.436Z,98638.72
2023-03-11T19:50:07.538Z,98653.31
2023-03-11T19:52:36.216Z,98664.47
2023-03-11T19:55:07.130Z,98659.88
2023-03-11T19:57:36.417Z,98667.22
2023-03-11T20:00:06.637Z,98664.84
2023-03-11T20:02:35.153Z,98680.84
2023-03-11T20:05:03.831Z,98679.22
2023-03-11T20:07:32.415Z,98686.84
2023-03-11T20:10:00.937Z,98695.78
2023-03-11T20:12:31.005Z,98692.06
2023-03-11T20:14:59.469Z,98688.50
2023-03-11T20:17:28.086Z,98698.66
2023-03-11T20:19:56.499Z,98695.41
2023-03-11T20:22:25.355Z,98714.78
2023-03-11T20:24:53.739Z,98723.78
2023-03-11T20:27:22.412Z,98721.63
2023-03-11T20:29:52.720Z,98715.22
2023-03-11T20:32:21.242Z,98719.53
2023-03-11T20:34:49.630Z,98731.13
2023-03-11T20:37:18.298Z,98730.31
2023-03-11T20:39:46.630Z,98723.22
2023-03-11T20:42:15.024Z,98723.28
2023-03-11T20:44:43.515Z,98737.84
2023-03-11T20:47:13.421Z,98747.69
2023-03-11T20:49:41.883Z,98745.50
2023-03-11T20:52:10.325Z,98741.41
2023-03-11T20:54:38.780Z,98746.34
2023-03-11T20:57:07.759Z,98754.38
2023-03-11T20:59:37.245Z,98760.31
2023-03-11T21:02:06.859Z,98757.84
2023-03-11T21:04:41.542Z,98763.00
2023-03-11T21:07:09.950Z,98766.78
2023-03-11T21:09:38.573Z,98772.66
2023-03-11T21:12:07.594Z,98779.34
2023-03-11T21:14:36.437Z,98781.47
2023-03-11T21:17:04.888Z,98787.69
2023-03-11T21:19:33.403Z,98803.44
2023-03-11T21:22:04.411Z,98794.75
2023-03-11T21:24:32.738Z,98801.22
2023-03-11T21:27:01.076Z,98803.84
2023-03-11T21:29:30.750Z,98801.28
2023-03-11T21:31:59.531Z,98799.81
2023-03-11T21:34:28.007Z,98802.72
2023-03-11T21:36:56.528Z,98793.47
2023-03-11T21:39:26.360Z,98797.91
2023-03-11T21:41:56.904Z,98798.88
2023-03-11T21:44:25.348Z,98810.69
2023-03-11T21:46:53.755Z,98807.22
2023-03-11T21:49:22.536Z,98815.75
2023-03-11T21:51:51.511Z,98824.44
2023-03-11T21:54:19.861Z,98822.41
2023-03-11T21:56:49.922Z,98832.81
2023-03-11T21:59:18.612Z,98838.03
2023-03-11T22:01:47.020Z,98850.13
2023-03-11T22:04:15.567Z,98865.22
2023-03-11T22:06:43.960Z,98875.31
2023-03-11T22:09:12.599Z,98883.19
2023-03-11T22:11:40.982Z,98889.81
2023-03-11T22:14:10.799Z,98898.00
2023-03-11T22:16:39.544Z,98899.44
2023-03-11T22:19:10.141Z,98901.31
2023-03-11T22:21:38.510Z,98899.47
2023-03-11T22:24:07.514Z,98901.06
2023-03-11T22:26:35.904Z,98904.06
2023-03-11T22:29:04.980Z,98899.38
2023-03-11T22:31:35.891Z,98905.34
2023-03-11T22:34:04.354Z,98913.38
2023-03-11T22:36:32.871Z,98917.00
2023-03-11T22:39:02.974Z,98904.78
2023-03-11T22:41:31.370Z,98918.28
2023-03-11T22:43:59.666Z,98914.56
2023-03-11T22:46:28.315Z,98915.81
2023-03-11T22:48:58.239Z,98938.53
2023-03-11T22:51:27.601Z,98932.91
2023-03-11T22:53:55.966Z,98946.34
2023-03-11T22:56:24.416Z,98949.03
2023-03-11T22:58:52.720Z,98944.81
2023-03-11T23:01:21.008Z,98957.66
2023-03-11T23:03:50.020Z,98957.19
2023-03-11T23:06:22.642Z,98972.25
2023-03-11T23:08:51.548Z,98976.66
2023-03-11T23:11:21.518Z,98966.78
2023-03-11T23:13:50.602Z,98986.38
2023-03-11T23:16:20.917Z,98983.84
2023-03-11T23:18:52.504Z,98977.44
2023-03-11T23:21:24.602Z,98983.25
2023-03-11T23:23:53.522Z,98979.00
2023-03-11T23:26:23.083Z,98992.50
2023-03-11T23:28:52.434Z,98976.66
2023-03-11T23:31:22.155Z,98964.78
2023-03-11T23:33:50.930Z,98971.66
2023-03-11T23:36:22.478Z,98987.63
2023-03-11T23:38:52.124Z,98989.06
2023-03-11T23:41:23.739Z,98967.91
2023-03-11T23:43:52.867Z,98973.53
2023-03-11T23:46:21.464Z,98983.88
2023-03-11T23:48:49.903Z,98978.09
2023-03-11T23:51:18.292Z,98985.28
2023-03-11T23:53:48.158Z,98974.66
2023-03-11T23:56:18.917Z,98982.97
2023-03-11T23:58:48.054Z,98994.22
